sensor_id;sensor_type;location;lat;lon;timestamp;P1;P4;P2;P0;N10;N4;N25;N1;N05;TS
44530;SPS30;30240;47.418;0.700;2023-02-20T00:02:23;38.932316;;38.927734;;;;;;;
44530;SPS30;30240;47.418;0.700;2023-02-20T00:04:49;47.38389;;47.06898;;;;;;;
44530;SPS30;30240;47.418;0.700;2023-02-20T00:07:14;40.568687;;40.474842;;;;;;;
44530;SPS30;30240;47.418;0.700;2023-02-20T00:09:38;40.568687;;40.474842;;;;;;;
44530;SPS30;30240;47.418;0.700;2023-02-20T00:12:03;38.018246;;37.984257;;;;;;;
44530;SPS30;30240;47.418;0.700;2023-02-20T00:14:28;35.294315;;35.29422;;;;;;;
44530;SPS30;30240;47.418;0.700;2023-02-20T00:16:53;34.74764;;34.747463;;;;;;;
44530;SPS30;30240;47.418;0.700;2023-02-20T00:19:18;33.06122;;33.0612;;;;;;;
44530;SPS30;30240;47.418;0.700;2023-02-20T00:21:44;33.06122;;33.0612;;;;;;;
44530;SPS30;30240;47.418;0.700;2023-02-20T00:24:08;36.604042;;36.604042;;;;;;;
44530;SPS30;30240;47.418;0.700;2023-02-20T00:26:33;52.23188;;51.55505;;;;;;;
44530;SPS30;30240;47.418;0.700;2023-02-20T00:28:58;43.697212;;43.685955;;;;;;;
44530;SPS30;30240;47.418;0.700;2023-02-20T00:31:23;37.547283;;37.51004;;;;;;;
44530;SPS30;30240;47.418;0.700;2023-02-20T00:33:48;36.992626;;36.992626;;;;;;;
44530;SPS30;30240;47.418;0.700;2023-02-20T00:36:14;36.992626;;36.992626;;;;;;;
44530;SPS30;30240;47.418;0.700;2023-02-20T00:38:39;41.102184;;41.095577;;;;;;;
44530;SPS30;30240;47.418;0.700;2023-02-20T00:41:03;42.46261;;42.461704;;;;;;;
44530;SPS30;30240;47.418;0.700;2023-02-20T00:43:28;40.455357;;40.455357;;;;;;;
44530;SPS30;30240;47.418;0.700;2023-02-20T00:45:53;40.528664;;39.958427;;;;;;;
44530;SPS30;30240;47.418;0.700;2023-02-20T00:48:18;40.528664;;39.958427;;;;;;;
44530;SPS30;30240;47.418;0.700;2023-02-20T00:50:43;38.513805;;38.480183;;;;;;;
44530;SPS30;30240;47.418;0.700;2023-02-20T00:53:08;44.46627;;44.465576;;;;;;;
44530;SPS30;30240;47.418;0.700;2023-02-20T00:55:33;45.09351;;45.0247;;;;;;;
44530;SPS30;30240;47.418;0.700;2023-02-20T00:57:58;46.396164;;45.896046;;;;;;;
44530;SPS30;30240;47.418;0.700;2023-02-20T01:00:24;46.396164;;45.896046;;;;;;;
44530;SPS30;30240;47.418;0.700;2023-02-20T01:02:48;50.55006;;50.389904;;;;;;;
44530;SPS30;30240;47.418;0.700;2023-02-20T01:05:14;47.39865;;46.96457;;;;;;;
44530;SPS30;30240;47.418;0.700;2023-02-20T01:07:38;45.120903;;45.120903;;;;;;;
44530;SPS30;30240;47.418;0.700;2023-02-20T01:10:04;42.7666;;42.69713;;;;;;;
44530;SPS30;30240;47.418;0.700;2023-02-20T01:12:28;42.7666;;42.69713;;;;;;;
44530;SPS30;30240;47.418;0.700;2023-02-20T01:14:53;46.44772;;46.44772;;;;;;;
44530;SPS30;30240;47.418;0.700;2023-02-20T01:17:18;44.81116;;44.38075;;;;;;;
44530;SPS30;30240;47.418;0.700;2023-02-20T01:19:43;43.609344;;43.46598;;;;;;;
44530;SPS30;30240;47.418;0.700;2023-02-20T01:22:08;44.22618;;44.219193;;;;;;;
44530;SPS30;30240;47.418;0.700;2023-02-20T01:24:33;44.22618;;44.219193;;;;;;;
44530;SPS30;30240;47.418;0.700;2023-02-20T01:27:00;49.499622;;49.236767;;;;;;;
44530;SPS30;30240;47.418;0.700;2023-02-20T01:29:25;47.83957;;47.83957;;;;;;;
44530;SPS30;30240;47.418;0.700;2023-02-20T01:31:49;49.525406;;49.473915;;;;;;;
44530;SPS30;30240;47.418;0.700;2023-02-20T01:34:14;45.85005;;45.84975;;;;;;;
44530;SPS30;30240;47.418;0.700;2023-02-20T01:36:44;45.85005;;45.84975;;;;;;;
44530;SPS30;30240;47.418;0.700;2023-02-20T01:39:06;45.851353;;45.851353;;;;;;;
44530;SPS30;30240;47.418;0.700;2023-02-20T01:41:29;44.360714;;44.360714;;;;;;;
44530;SPS30;30240;47.418;0.700;2023-02-20T01:43:54;44.986595;;44.957615;;;;;;;
44530;SPS30;30240;47.418;0.700;2023-02-20T01:46:41;45.283794;;45.283794;;;;;;;
44530;SPS30;30240;47.418;0.700;2023-02-20T01:48:43;45.283794;;45.283794;;;;;;;
44530;SPS30;30240;47.418;0.700;2023-02-20T01:51:09;44.72329;;44.693703;;;;;;;
44530;SPS30;30240;47.418;0.700;2023-02-20T01:53:33;45.44566;;45.410244;;;;;;;
44530;SPS30;30240;47.418;0.700;2023-02-20T01:55:59;49.265995;;49.26394;;;;;;;
44530;SPS30;30240;47.418;0.700;2023-02-20T01:58:24;48.634113;;48.623306;;;;;;;
44530;SPS30;30240;47.418;0.700;2023-02-20T02:00:49;48.634113;;48.623306;;;;;;;
44530;SPS30;30240;47.418;0.700;2023-02-20T02:03:14;50.880665;;50.880665;;;;;;;
44530;SPS30;30240;47.418;0.700;2023-02-20T02:05:39;50.51802;;50.516926;;;;;;;
44530;SPS30;30240;47.418;0.700;2023-02-20T02:08:04;47.611343;;47.611145;;;;;;;
44530;SPS30;30240;47.418;0.700;2023-02-20T02:10:30;50.752228;;50.75212;;;;;;;
44530;SPS30;30240;47.418;0.700;2023-02-20T02:12:53;46.78331;;46.734097;;;;;;;
44530;SPS30;30240;47.418;0.700;2023-02-20T02:15:19;46.78331;;46.734097;;;;;;;
44530;SPS30;30240;47.418;0.700;2023-02-20T02:18:07;43.870586;;43.869625;;;;;;;
44530;SPS30;30240;47.418;0.700;2023-02-20T02:20:20;46.369232;;46.369232;;;;;;;
44530;SPS30;30240;47.418;0.700;2023-02-20T02:20:30;46.369232;;46.369232;;;;;;;
44530;SPS30;30240;47.418;0.700;2023-02-20T02:22:39;46.469265;;46.447952;;;;;;;
44530;SPS30;30240;47.418;0.700;2023-02-20T02:22:48;46.469265;;46.447952;;;;;;;
44530;SPS30;30240;47.418;0.700;2023-02-20T02:25:12;45.991035;;45.90059;;;;;;;
44530;SPS30;30240;47.418;0.700;2023-02-20T02:27:40;45.991035;;45.90059;;;;;;;
44530;SPS30;30240;47.418;0.700;2023-02-20T02:27:51;45.991035;;45.90059;;;;;;;
44530;SPS30;30240;47.418;0.700;2023-02-20T02:30:14;45.707382;;45.707382;;;;;;;
44530;SPS30;30240;47.418;0.700;2023-02-20T02:32:19;42.762657;;42.762257;;;;;;;
44530;SPS30;30240;47.418;0.700;2023-02-20T02:34:46;40.615223;;40.474033;;;;;;;
44530;SPS30;30240;47.418;0.700;2023-02-20T02:34:56;40.615223;;40.474033;;;;;;;
44530;SPS30;30240;47.418;0.700;2023-02-20T02:37:05;39.15344;;39.15344;;;;;;;
44530;SPS30;30240;47.418;0.700;2023-02-20T02:39:32;39.15344;;39.15344;;;;;;;
44530;SPS30;30240;47.418;0.700;2023-02-20T02:41:55;38.526123;;38.526123;;;;;;;
44530;SPS30;30240;47.418;0.700;2023-02-20T02:44:20;39.468254;;39.468254;;;;;;;
44530;SPS30;30240;47.418;0.700;2023-02-20T02:46:46;39.433002;;39.433002;;;;;;;
44530;SPS30;30240;47.418;0.700;2023-02-20T02:49:10;38.77293;;38.77293;;;;;;;
44530;SPS30;30240;47.418;0.700;2023-02-20T02:51:35;38.77293;;38.77293;;;;;;;
44530;SPS30;30240;47.418;0.700;2023-02-20T02:54:04;37.461094;;37.46027;;;;;;;
44530;SPS30;30240;47.418;0.700;2023-02-20T02:56:32;37.50201;;37.50201;;;;;;;
44530;SPS30;30240;47.418;0.700;2023-02-20T02:58:49;37.68442;;37.681896;;;;;;;
44530;SPS30;30240;47.418;0.700;2023-02-20T03:01:13;37.549545;;37.549545;;;;;;;
44530;SPS30;30240;47.418;0.700;2023-02-20T03:03:39;37.549545;;37.549545;;;;;;;
44530;SPS30;30240;47.418;0.700;2023-02-20T03:06:04;36.72475;;36.72475;;;;;;;
44530;SPS30;30240;47.418;0.700;2023-02-20T03:08:29;36.8379;;36.8379;;;;;;;
44530;SPS30;30240;47.418;0.700;2023-02-20T03:10:53;34.147938;;34.147835;;;;;;;
44530;SPS30;30240;47.418;0.700;2023-02-20T03:13:18;33.651085;;33.651085;;;;;;;
44530;SPS30;30240;47.418;0.700;2023-02-20T03:15:44;33.651085;;33.651085;;;;;;;
44530;SPS30;30240;47.418;0.700;2023-02-20T03:18:10;34.74371;;34.74371;;;;;;;
44530;SPS30;30240;47.418;0.700;2023-02-20T03:20:33;32.77706;;32.77706;;;;;;;
44530;SPS30;30240;47.418;0.700;2023-02-20T03:22:59;34.043987;;34.043987;;;;;;;
44530;SPS30;30240;47.418;0.700;2023-02-20T03:25:24;32.082962;;32.05598;;;;;;;
44530;SPS30;30240;47.418;0.700;2023-02-20T03:27:50;32.082962;;32.05598;;;;;;;
44530;SPS30;30240;47.418;0.700;2023-02-20T03:30:14;30.291851;;30.291851;;;;;;;
44530;SPS30;30240;47.418;0.700;2023-02-20T03:32:39;31.811237;;31.811237;;;;;;;
44530;SPS30;30240;47.418;0.700;2023-02-20T03:35:04;177.82213;;172.89963;;;;;;;
44530;SPS30;30240;47.418;0.700;2023-02-20T03:37:29;44.09785;;43.87811;;;;;;;
44530;SPS30;30240;47.418;0.700;2023-02-20T03:39:54;39.931595;;39.931595;;;;;;;
44530;SPS30;30240;47.418;0.700;2023-02-20T03:42:19;39.931595;;39.931595;;;;;;;
44530;SPS30;30240;47.418;0.700;2023-02-20T03:44:43;33.872364;;33.87212;;;;;;;
44530;SPS30;30240;47.418;0.700;2023-02-20T03:47:09;33.027653;;33.027653;;;;;;;
44530;SPS30;30240;47.418;0.700;2023-02-20T03:49:34;34.494835;;34.494835;;;;;;;
44530;SPS30;30240;47.418;0.700;2023-02-20T03:51:58;37.68761;;37.68761;;;;;;;
44530;SPS30;30240;47.418;0.700;2023-02-20T03:54:24;37.68761;;37.68761;;;;;;;
44530;SPS30;30240;47.418;0.700;2023-02-20T03:56:49;39.28549;;39.28549;;;;;;;
44530;SPS30;30240;47.418;0.700;2023-02-20T03:59:14;37.4465;;37.4465;;;;;;;
44530;SPS30;30240;47.418;0.700;2023-02-20T04:01:38;39.386307;;39.38284;;;;;;;
44530;SPS30;30240;47.418;0.700;2023-02-20T04:04:03;41.75079;;41.74925;;;;;;;
44530;SPS30;30240;47.418;0.700;2023-02-20T04:06:29;41.75079;;41.74925;;;;;;;
44530;SPS30;30240;47.418;0.700;2023-02-20T04:08:55;39.82039;;39.574066;;;;;;;
44530;SPS30;30240;47.418;0.700;2023-02-20T04:11:19;41.146725;;41.146725;;;;;;;
44530;SPS30;30240;47.418;0.700;2023-02-20T04:13:43;41.265415;;40.868008;;;;;;;
44530;SPS30;30240;47.418;0.700;2023-02-20T04:16:08;37.79163;;37.79162;;;;;;;
44530;SPS30;30240;47.418;0.700;2023-02-20T04:18:34;37.79163;;37.79162;;;;;;;
44530;SPS30;30240;47.418;0.700;2023-02-20T04:20:59;36.72189;;36.72189;;;;;;;
44530;SPS30;30240;47.418;0.700;2023-02-20T04:23:24;32.935215;;32.935215;;;;;;;
44530;SPS30;30240;47.418;0.700;2023-02-20T04:25:50;37.906326;;37.905483;;;;;;;
44530;SPS30;30240;47.418;0.700;2023-02-20T04:28:14;38.859684;;38.859684;;;;;;;
44530;SPS30;30240;47.418;0.700;2023-02-20T04:30:39;38.859684;;38.859684;;;;;;;
44530;SPS30;30240;47.418;0.700;2023-02-20T04:33:03;34.939377;;34.930187;;;;;;;
44530;SPS30;30240;47.418;0.700;2023-02-20T04:35:28;37.030125;;37.027267;;;;;;;
44530;SPS30;30240;47.418;0.700;2023-02-20T04:37:53;37.224857;;37.18111;;;;;;;
44530;SPS30;30240;47.418;0.700;2023-02-20T04:40:19;40.93336;;40.80763;;;;;;;
44530;SPS30;30240;47.418;0.700;2023-02-20T04:42:43;40.93336;;40.80763;;;;;;;
44530;SPS30;30240;47.418;0.700;2023-02-20T04:45:09;38.20352;;38.20352;;;;;;;
44530;SPS30;30240;47.418;0.700;2023-02-20T04:47:33;40.14317;;40.0356;;;;;;;
44530;SPS30;30240;47.418;0.700;2023-02-20T04:49:58;38.771744;;38.771744;;;;;;;
44530;SPS30;30240;47.418;0.700;2023-02-20T04:52:23;40.5285;;40.5285;;;;;;;
44530;SPS30;30240;47.418;0.700;2023-02-20T04:54:49;40.5285;;40.5285;;;;;;;
44530;SPS30;30240;47.418;0.700;2023-02-20T04:57:13;39.76589;;39.761646;;;;;;;
44530;SPS30;30240;47.418;0.700;2023-02-20T04:59:38;40.200294;;40.200294;;;;;;;
44530;SPS30;30240;47.418;0.700;2023-02-20T05:02:03;36.550102;;36.54962;;;;;;;
44530;SPS30;30240;47.418;0.700;2023-02-20T05:04:28;39.766895;;39.72123;;;;;;;
44530;SPS30;30240;47.418;0.700;2023-02-20T05:06:54;39.766895;;39.72123;;;;;;;
44530;SPS30;30240;47.418;0.700;2023-02-20T05:09:19;39.953552;;39.80338;;;;;;;
44530;SPS30;30240;47.418;0.700;2023-02-20T05:11:43;39.937225;;39.937225;;;;;;;
44530;SPS30;30240;47.418;0.700;2023-02-20T05:14:09;40.900402;;40.900402;;;;;;;
44530;SPS30;30240;47.418;0.700;2023-02-20T05:16:35;46.968723;;46.864815;;;;;;;
44530;SPS30;30240;47.418;0.700;2023-02-20T05:18:58;40.266117;;40.14153;;;;;;;
44530;SPS30;30240;47.418;0.700;2023-02-20T05:21:23;40.266117;;40.14153;;;;;;;
44530;SPS30;30240;47.418;0.700;2023-02-20T05:23:48;40.609962;;40.58698;;;;;;;
44530;SPS30;30240;47.418;0.700;2023-02-20T05:26:16;41.76414;;41.67754;;;;;;;
44530;SPS30;30240;47.418;0.700;2023-02-20T05:28:38;42.373367;;42.35302;;;;;;;
44530;SPS30;30240;47.418;0.700;2023-02-20T05:31:04;39.296494;;39.293327;;;;;;;
44530;SPS30;30240;47.418;0.700;2023-02-20T05:33:28;39.296494;;39.293327;;;;;;;
44530;SPS30;30240;47.418;0.700;2023-02-20T05:35:53;37.443798;;37.442806;;;;;;;
44530;SPS30;30240;47.418;0.700;2023-02-20T05:38:18;33.633785;;33.633785;;;;;;;
44530;SPS30;30240;47.418;0.700;2023-02-20T05:40:43;33.3415;;33.330746;;;;;;;
44530;SPS30;30240;47.418;0.700;2023-02-20T05:43:08;33.039963;;32.986427;;;;;;;
44530;SPS30;30240;47.418;0.700;2023-02-20T05:45:33;33.039963;;32.986427;;;;;;;
44530;SPS30;30240;47.418;0.700;2023-02-20T05:47:58;34.660862;;34.44729;;;;;;;
44530;SPS30;30240;47.418;0.700;2023-02-20T05:50:24;32.55781;;32.533688;;;;;;;
44530;SPS30;30240;47.418;0.700;2023-02-20T05:52:48;33.494904;;33.338802;;;;;;;
44530;SPS30;30240;47.418;0.700;2023-02-20T05:55:13;33.060184;;33.05946;;;;;;;
44530;SPS30;30240;47.418;0.700;2023-02-20T05:57:38;33.060184;;33.05946;;;;;;;
44530;SPS30;30240;47.418;0.700;2023-02-20T06:00:04;34.513447;;34.431328;;;;;;;
44530;SPS30;30240;47.418;0.700;2023-02-20T06:02:30;34.804462;;34.759357;;;;;;;
44530;SPS30;30240;47.418;0.700;2023-02-20T06:04:53;35.97007;;35.78539;;;;;;;
44530;SPS30;30240;47.418;0.700;2023-02-20T06:07:18;35.203644;;35.20152;;;;;;;
44530;SPS30;30240;47.418;0.700;2023-02-20T06:09:43;35.203644;;35.20152;;;;;;;
44530;SPS30;30240;47.418;0.700;2023-02-20T06:12:08;35.2936;;35.2936;;;;;;;
44530;SPS30;30240;47.418;0.700;2023-02-20T06:14:33;36.133266;;36.09626;;;;;;;
44530;SPS30;30240;47.418;0.700;2023-02-20T06:16:58;32.412277;;32.220627;;;;;;;
44530;SPS30;30240;47.418;0.700;2023-02-20T06:19:24;29.926868;;29.726658;;;;;;;
44530;SPS30;30240;47.418;0.700;2023-02-20T06:21:49;29.926868;;29.726658;;;;;;;
44530;SPS30;30240;47.418;0.700;2023-02-20T06:24:14;28.882214;;28.431261;;;;;;;
44530;SPS30;30240;47.418;0.700;2023-02-20T06:26:38;26.64129;;26.605028;;;;;;;
44530;SPS30;30240;47.418;0.700;2023-02-20T06:29:03;28.09021;;28.089931;;;;;;;
44530;SPS30;30240;47.418;0.700;2023-02-20T06:31:28;27.634975;;27.634975;;;;;;;
44530;SPS30;30240;47.418;0.700;2023-02-20T06:33:54;27.634975;;27.634975;;;;;;;
44530;SPS30;30240;47.418;0.700;2023-02-20T06:36:19;28.008123;;28.00809;;;;;;;
44530;SPS30;30240;47.418;0.700;2023-02-20T06:38:44;27.723965;;27.72035;;;;;;;
44530;SPS30;30240;47.418;0.700;2023-02-20T06:41:08;29.900005;;29.568594;;;;;;;
44530;SPS30;30240;47.418;0.700;2023-02-20T06:43:33;27.55377;;27.55377;;;;;;;
44530;SPS30;30240;47.418;0.700;2023-02-20T06:45:58;28.000914;;28.000914;;;;;;;
44530;SPS30;30240;47.418;0.700;2023-02-20T06:48:23;28.000914;;28.000914;;;;;;;
44530;SPS30;30240;47.418;0.700;2023-02-20T06:50:48;24.736673;;24.645124;;;;;;;
44530;SPS30;30240;47.418;0.700;2023-02-20T06:53:14;23.75608;;23.756023;;;;;;;
44530;SPS30;30240;47.418;0.700;2023-02-20T06:55:38;26.291777;;26.239979;;;;;;;
44530;SPS30;30240;47.418;0.700;2023-02-20T06:58:03;24.833492;;24.833492;;;;;;;
44530;SPS30;30240;47.418;0.700;2023-02-20T07:00:28;24.833492;;24.833492;;;;;;;
44530;SPS30;30240;47.418;0.700;2023-02-20T07:02:53;24.78266;;24.782421;;;;;;;
44530;SPS30;30240;47.418;0.700;2023-02-20T07:05:18;24.9142;;24.72851;;;;;;;
44530;SPS30;30240;47.418;0.700;2023-02-20T07:07:44;25.24353;;25.243196;;;;;;;
44530;SPS30;30240;47.418;0.700;2023-02-20T07:10:08;26.862907;;26.837454;;;;;;;
44530;SPS30;30240;47.418;0.700;2023-02-20T07:12:34;26.862907;;26.837454;;;;;;;
44530;SPS30;30240;47.418;0.700;2023-02-20T07:14:58;29.323078;;28.836859;;;;;;;
44530;SPS30;30240;47.418;0.700;2023-02-20T07:17:23;23.701967;;23.603315;;;;;;;
44530;SPS30;30240;47.418;0.700;2023-02-20T07:19:48;32.80076;;32.550835;;;;;;;
44530;SPS30;30240;47.418;0.700;2023-02-20T07:22:13;25.586601;;25.586601;;;;;;;
44530;SPS30;30240;47.418;0.700;2023-02-20T07:24:38;25.586601;;25.586601;;;;;;;
44530;SPS30;30240;47.418;0.700;2023-02-20T07:27:03;23.69758;;23.69758;;;;;;;
44530;SPS30;30240;47.418;0.700;2023-02-20T07:29:28;26.71755;;26.578543;;;;;;;
44530;SPS30;30240;47.418;0.700;2023-02-20T07:31:53;23.501112;;23.501112;;;;;;;
44530;SPS30;30240;47.418;0.700;2023-02-20T07:34:19;30.437172;;30.367361;;;;;;;
44530;SPS30;30240;47.418;0.700;2023-02-20T07:36:43;30.437172;;30.367361;;;;;;;
44530;SPS30;30240;47.418;0.700;2023-02-20T07:39:09;27.198479;;27.198479;;;;;;;
44530;SPS30;30240;47.418;0.700;2023-02-20T07:41:34;27.116812;;26.98377;;;;;;;
44530;SPS30;30240;47.418;0.700;2023-02-20T07:43:58;33.87492;;33.705723;;;;;;;
44530;SPS30;30240;47.418;0.700;2023-02-20T07:46:23;23.855717;;23.855717;;;;;;;
44530;SPS30;30240;47.418;0.700;2023-02-20T07:48:48;23.855717;;23.855717;;;;;;;
44530;SPS30;30240;47.418;0.700;2023-02-20T07:51:14;25.939972;;25.920038;;;;;;;
44530;SPS30;30240;47.418;0.700;2023-02-20T07:53:39;26.75945;;26.6791;;;;;;;
44530;SPS30;30240;47.418;0.700;2023-02-20T07:56:04;25.720512;;25.665533;;;;;;;
44530;SPS30;30240;47.418;0.700;2023-02-20T07:58:29;19.14242;;19.021078;;;;;;;
44530;SPS30;30240;47.418;0.700;2023-02-20T08:00:53;19.14242;;19.021078;;;;;;;
44530;SPS30;30240;47.418;0.700;2023-02-20T08:03:18;20.976044;;20.929893;;;;;;;
44530;SPS30;30240;47.418;0.700;2023-02-20T08:05:44;20.884975;;20.883007;;;;;;;
44530;SPS30;30240;47.418;0.700;2023-02-20T08:08:08;19.823427;;19.823427;;;;;;;
44530;SPS30;30240;47.418;0.700;2023-02-20T08:10:34;20.579273;;20.579273;;;;;;;
44530;SPS30;30240;47.418;0.700;2023-02-20T08:12:58;20.579273;;20.579273;;;;;;;
44530;SPS30;30240;47.418;0.700;2023-02-20T08:15:23;19.244608;;19.219196;;;;;;;
44530;SPS30;30240;47.418;0.700;2023-02-20T08:17:48;17.925325;;17.854498;;;;;;;
44530;SPS30;30240;47.418;0.700;2023-02-20T08:20:14;27.24108;;27.004406;;;;;;;
44530;SPS30;30240;47.418;0.700;2023-02-20T08:22:38;33.11089;;32.787598;;;;;;;
44530;SPS30;30240;47.418;0.700;2023-02-20T08:25:04;19.506252;;19.445353;;;;;;;
44530;SPS30;30240;47.418;0.700;2023-02-20T08:27:29;19.506252;;19.445353;;;;;;;
44530;SPS30;30240;47.418;0.700;2023-02-20T08:29:53;26.269953;;26.26436;;;;;;;
44530;SPS30;30240;47.418;0.700;2023-02-20T08:32:18;20.118704;;20.060663;;;;;;;
44530;SPS30;30240;47.418;0.700;2023-02-20T08:34:43;20.856688;;20.72086;;;;;;;
44530;SPS30;30240;47.418;0.700;2023-02-20T08:37:08;21.458118;;21.41842;;;;;;;
44530;SPS30;30240;47.418;0.700;2023-02-20T08:39:33;21.458118;;21.41842;;;;;;;
44530;SPS30;30240;47.418;0.700;2023-02-20T08:41:59;22.257778;;22.166954;;;;;;;
44530;SPS30;30240;47.418;0.700;2023-02-20T08:44:23;19.44003;;19.343994;;;;;;;
44530;SPS30;30240;47.418;0.700;2023-02-20T08:46:49;20.682707;;20.670673;;;;;;;
44530;SPS30;30240;47.418;0.700;2023-02-20T08:49:14;20.345783;;20.283754;;;;;;;
44530;SPS30;30240;47.418;0.700;2023-02-20T08:51:38;20.345783;;20.283754;;;;;;;
44530;SPS30;30240;47.418;0.700;2023-02-20T08:54:03;25.097664;;24.999449;;;;;;;
44530;SPS30;30240;47.418;0.700;2023-02-20T08:56:28;27.483753;;27.310396;;;;;;;
44530;SPS30;30240;47.418;0.700;2023-02-20T08:58:53;24.70694;;24.705158;;;;;;;
44530;SPS30;30240;47.418;0.700;2023-02-20T09:01:19;23.608692;;23.541683;;;;;;;
44530;SPS30;30240;47.418;0.700;2023-02-20T09:03:43;23.608692;;23.541683;;;;;;;
44530;SPS30;30240;47.418;0.700;2023-02-20T09:06:09;26.485367;;26.467178;;;;;;;
44530;SPS30;30240;47.418;0.700;2023-02-20T09:08:33;24.231134;;24.197279;;;;;;;
44530;SPS30;30240;47.418;0.700;2023-02-20T09:10:58;24.310705;;24.22269;;;;;;;
44530;SPS30;30240;47.418;0.700;2023-02-20T09:13:23;21.2685;;21.267977;;;;;;;
44530;SPS30;30240;47.418;0.700;2023-02-20T09:15:48;21.2685;;21.267977;;;;;;;
44530;SPS30;30240;47.418;0.700;2023-02-20T09:18:14;21.725016;;21.725016;;;;;;;
44530;SPS30;30240;47.418;0.700;2023-02-20T09:20:39;20.33932;;20.33932;;;;;;;
44530;SPS30;30240;47.418;0.700;2023-02-20T09:23:04;19.342464;;19.342464;;;;;;;
44530;SPS30;30240;47.418;0.700;2023-02-20T09:25:28;16.726751;;16.726751;;;;;;;
44530;SPS30;30240;47.418;0.700;2023-02-20T09:27:53;16.726751;;16.726751;;;;;;;
44530;SPS30;30240;47.418;0.700;2023-02-20T09:30:19;14.56466;;14.56466;;;;;;;
44530;SPS30;30240;47.418;0.700;2023-02-20T09:32:43;12.60454;;12.60454;;;;;;;
44530;SPS30;30240;47.418;0.700;2023-02-20T09:35:09;10.534217;;10.534217;;;;;;;
44530;SPS30;30240;47.418;0.700;2023-02-20T09:37:33;12.01356;;12.01356;;;;;;;
44530;SPS30;30240;47.418;0.700;2023-02-20T09:39:58;12.01356;;12.01356;;;;;;;
44530;SPS30;30240;47.418;0.700;2023-02-20T09:42:27;9.451636;;9.451636;;;;;;;
44530;SPS30;30240;47.418;0.700;2023-02-20T09:44:52;10.296541;;10.296541;;;;;;;
44530;SPS30;30240;47.418;0.700;2023-02-20T09:47:18;10.6840725;;10.6840725;;;;;;;
44530;SPS30;30240;47.418;0.700;2023-02-20T09:47:26;10.6840725;;10.6840725;;;;;;;
44530;SPS30;30240;47.418;0.700;2023-02-20T09:49:38;10.633172;;10.633172;;;;;;;
44530;SPS30;30240;47.418;0.700;2023-02-20T09:52:05;10.122417;;10.122417;;;;;;;
44530;SPS30;30240;47.418;0.700;2023-02-20T09:54:29;10.122417;;10.122417;;;;;;;
44530;SPS30;30240;47.418;0.700;2023-02-20T09:56:55;10.275115;;10.275115;;;;;;;
44530;SPS30;30240;47.418;0.700;2023-02-20T09:59:19;9.516986;;9.516986;;;;;;;
44530;SPS30;30240;47.418;0.700;2023-02-20T10:01:49;11.104423;;11.104423;;;;;;;
44530;SPS30;30240;47.418;0.700;2023-02-20T10:01:51;11.104423;;11.104423;;;;;;;
44530;SPS30;30240;47.418;0.700;2023-02-20T10:04:09;11.642278;;11.642278;;;;;;;
44530;SPS30;30240;47.418;0.700;2023-02-20T10:06:34;11.642278;;11.642278;;;;;;;
44530;SPS30;30240;47.418;0.700;2023-02-20T10:08:58;10.573958;;10.573958;;;;;;;
44530;SPS30;30240;47.418;0.700;2023-02-20T10:11:27;11.989021;;11.989021;;;;;;;
44530;SPS30;30240;47.418;0.700;2023-02-20T10:11:35;11.989021;;11.989021;;;;;;;
44530;SPS30;30240;47.418;0.700;2023-02-20T10:11:43;11.989021;;11.989021;;;;;;;
44530;SPS30;30240;47.418;0.700;2023-02-20T10:13:51;13.430594;;13.430594;;;;;;;
44530;SPS30;30240;47.418;0.700;2023-02-20T10:16:17;15.21398;;15.21398;;;;;;;
44530;SPS30;30240;47.418;0.700;2023-02-20T10:18:40;15.21398;;15.21398;;;;;;;
44530;SPS30;30240;47.418;0.700;2023-02-20T10:21:06;12.70912;;12.70912;;;;;;;
44530;SPS30;30240;47.418;0.700;2023-02-20T10:23:32;15.232437;;15.232437;;;;;;;
44530;SPS30;30240;47.418;0.700;2023-02-20T10:25:55;13.883106;;13.883106;;;;;;;
44530;SPS30;30240;47.418;0.700;2023-02-20T10:28:18;12.452249;;12.449736;;;;;;;
44530;SPS30;30240;47.418;0.700;2023-02-20T10:30:45;12.452249;;12.449736;;;;;;;
44530;SPS30;30240;47.418;0.700;2023-02-20T10:33:13;12.295622;;12.295622;;;;;;;
44530;SPS30;30240;47.418;0.700;2023-02-20T10:35:35;10.766845;;10.766845;;;;;;;
44530;SPS30;30240;47.418;0.700;2023-02-20T10:38:01;9.279217;;9.279217;;;;;;;
44530;SPS30;30240;47.418;0.700;2023-02-20T10:40:24;8.021316;;8.021316;;;;;;;
44530;SPS30;30240;47.418;0.700;2023-02-20T10:42:51;8.021316;;8.021316;;;;;;;
44530;SPS30;30240;47.418;0.700;2023-02-20T10:45:15;8.232811;;8.232811;;;;;;;
44530;SPS30;30240;47.418;0.700;2023-02-20T10:47:39;7.553208;;7.553208;;;;;;;
44530;SPS30;30240;47.418;0.700;2023-02-20T10:50:04;7.247888;;7.247888;;;;;;;
44530;SPS30;30240;47.418;0.700;2023-02-20T10:52:31;6.982138;;6.982138;;;;;;;
44530;SPS30;30240;47.418;0.700;2023-02-20T10:54:54;6.982138;;6.982138;;;;;;;
44530;SPS30;30240;47.418;0.700;2023-02-20T10:57:19;7.345935;;7.345935;;;;;;;
44530;SPS30;30240;47.418;0.700;2023-02-20T10:59:44;6.855988;;6.855988;;;;;;;
44530;SPS30;30240;47.418;0.700;2023-02-20T11:02:10;5.241045;;5.241045;;;;;;;
44530;SPS30;30240;47.418;0.700;2023-02-20T11:04:34;5.1418715;;5.1418715;;;;;;;
44530;SPS30;30240;47.418;0.700;2023-02-20T11:06:59;5.1418715;;5.1418715;;;;;;;
44530;SPS30;30240;47.418;0.700;2023-02-20T11:09:23;4.900164;;4.900164;;;;;;;
44530;SPS30;30240;47.418;0.700;2023-02-20T11:11:48;4.7292395;;4.7292395;;;;;;;
44530;SPS30;30240;47.418;0.700;2023-02-20T11:14:14;3.856102;;3.856102;;;;;;;
44530;SPS30;30240;47.418;0.700;2023-02-20T11:16:40;4.134472;;4.134472;;;;;;;
44530;SPS30;30240;47.418;0.700;2023-02-20T11:19:06;4.134472;;4.134472;;;;;;;
44530;SPS30;30240;47.418;0.700;2023-02-20T11:21:33;3.6795397;;3.6795397;;;;;;;
44530;SPS30;30240;47.418;0.700;2023-02-20T11:23:53;3.6762445;;3.6762445;;;;;;;
44530;SPS30;30240;47.418;0.700;2023-02-20T11:26:30;3.3881714;;3.3881714;;;;;;;
44530;SPS30;30240;47.418;0.700;2023-02-20T11:28:43;5.0444336;;5.0444336;;;;;;;
44530;SPS30;30240;47.418;0.700;2023-02-20T11:31:08;4.812738;;4.812738;;;;;;;
44530;SPS30;30240;47.418;0.700;2023-02-20T11:33:34;4.812738;;4.812738;;;;;;;
44530;SPS30;30240;47.418;0.700;2023-02-20T11:36:08;5.055309;;5.055309;;;;;;;
44530;SPS30;30240;47.418;0.700;2023-02-20T11:36:08;5.055309;;5.055309;;;;;;;
44530;SPS30;30240;47.418;0.700;2023-02-20T11:38:26;5.5837216;;5.5837216;;;;;;;
44530;SPS30;30240;47.418;0.700;2023-02-20T11:41:05;5.3284388;;5.3284388;;;;;;;
44530;SPS30;30240;47.418;0.700;2023-02-20T11:43:15;4.8037925;;4.8037925;;;;;;;
44530;SPS30;30240;47.418;0.700;2023-02-20T11:45:39;4.8037925;;4.8037925;;;;;;;
44530;SPS30;30240;47.418;0.700;2023-02-20T11:48:05;4.3254585;;4.3254585;;;;;;;
44530;SPS30;30240;47.418;0.700;2023-02-20T11:50:29;3.8305466;;3.8305466;;;;;;;
44530;SPS30;30240;47.418;0.700;2023-02-20T11:50:38;3.8305466;;3.8305466;;;;;;;
44530;SPS30;30240;47.418;0.700;2023-02-20T11:52:55;4.1229405;;4.1229405;;;;;;;